createdAt,value
2018-01-20T00:00:38.509Z,6.27
2018-01-20T00:03:06.871Z,8.87
2018-01-20T00:05:34.479Z,8.90
2018-01-20T00:08:02.083Z,6.73
2018-01-20T00:10:41.692Z,7.37
2018-01-20T00:13:09.304Z,7.43
2018-01-20T00:15:36.900Z,12.07
2018-01-20T00:21:21.260Z,8.30
2018-01-20T00:23:48.880Z,8.03
2018-01-20T00:29:18.208Z,9.17
2018-01-20T00:31:45.822Z,10.07
2018-01-20T00:34:13.418Z,9.20
2018-01-20T00:36:41.018Z,6.70
2018-01-20T00:39:09.387Z,6.80
2018-01-20T00:41:37.758Z,7.23
2018-01-20T00:44:05.392Z,4.20
2018-01-20T00:46:32.992Z,4.43
2018-01-20T00:49:01.354Z,4.20
2018-01-20T00:51:28.960Z,7.10
2018-01-20T00:53:56.560Z,3.10
2018-01-20T00:56:24.204Z,3.50
2018-01-20T00:58:51.792Z,5.30
2018-01-20T01:01:19.399Z,2.47
2018-01-20T01:03:47.003Z,5.20
2018-01-20T01:06:14.605Z,4.80
2018-01-20T01:08:43.003Z,5.33
2018-01-20T01:11:10.596Z,5.63
2018-01-20T01:13:38.180Z,3.33
2018-01-20T01:16:05.776Z,2.47
2018-01-20T01:18:33.364Z,2.73
2018-01-20T01:21:00.965Z,2.30
2018-01-20T01:23:28.558Z,2.70
2018-01-20T01:25:56.921Z,2.77
2018-01-20T01:28:25.280Z,2.50
2018-01-20T01:30:52.860Z,3.50
2018-01-20T01:33:20.470Z,2.30
2018-01-20T01:35:48.060Z,2.10
2018-01-20T01:38:15.659Z,4.60
2018-01-20T01:40:44.010Z,2.93
2018-01-20T01:43:11.608Z,3.50
2018-01-20T01:45:39.235Z,2.00
2018-01-20T01:48:06.836Z,3.37
2018-01-20T01:50:34.420Z,6.80
2018-01-20T01:53:02.005Z,3.93
2018-01-20T01:55:29.605Z,1.90
2018-01-20T01:57:58.015Z,3.80
2018-01-20T02:00:25.611Z,2.57
2018-01-20T02:02:53.219Z,2.80
2018-01-20T02:05:20.830Z,1.80
2018-01-20T02:07:48.455Z,2.07
2018-01-20T02:10:16.076Z,4.07
2018-01-20T02:12:43.663Z,2.73
2018-01-20T02:15:11.259Z,2.47
2018-01-20T02:17:38.838Z,4.03
2018-01-20T02:20:06.425Z,3.70
2018-01-20T02:22:34.818Z,3.33
2018-01-20T02:25:02.400Z,2.43
2018-01-20T02:27:30.008Z,3.63
2018-01-20T02:29:57.611Z,3.67
2018-01-20T02:32:25.216Z,2.80
2018-01-20T02:34:52.842Z,5.23
2018-01-20T02:37:20.471Z,5.00
2018-01-20T02:39:48.826Z,2.43
2018-01-20T02:42:16.437Z,2.47
2018-01-20T02:44:44.035Z,3.93
2018-01-20T02:47:11.659Z,3.80
2018-01-20T02:49:39.254Z,4.80
2018-01-20T02:52:06.846Z,2.87
2018-01-20T02:54:34.542Z,9.23
2018-01-20T02:57:02.127Z,4.30
2018-01-20T02:59:29.738Z,6.80
2018-01-20T03:01:57.334Z,4.00
2018-01-20T03:04:24.920Z,3.30
2018-01-20T03:06:52.510Z,2.27
2018-01-20T03:09:20.093Z,3.40
2018-01-20T03:11:48.466Z,3.70
2018-01-20T03:14:16.839Z,4.60
2018-01-20T03:16:44.426Z,4.20
2018-01-20T03:19:12.022Z,4.37
2018-01-20T03:21:39.624Z,2.50
2018-01-20T03:24:08.000Z,5.93
2018-01-20T03:26:36.372Z,4.53
2018-01-20T03:29:03.967Z,7.43
2018-01-20T03:31:31.568Z,5.57
2018-01-20T03:33:59.156Z,5.53
2018-01-20T03:36:26.790Z,6.67
2018-01-20T03:38:54.408Z,6.63
2018-01-20T03:41:21.989Z,3.77
2018-01-20T03:43:49.589Z,4.10
2018-01-20T03:46:17.222Z,4.07
2018-01-20T03:48:44.851Z,6.70
2018-01-20T03:51:12.443Z,3.43
2018-01-20T03:53:40.028Z,5.20
2018-01-20T03:56:07.650Z,4.43
2018-01-20T03:58:35.267Z,4.90
2018-01-20T04:01:02.871Z,3.00
2018-01-20T04:03:30.451Z,5.77
2018-01-20T04:05:58.032Z,3.17
2018-01-20T04:08:25.630Z,4.67
2018-01-20T04:10:53.991Z,3.90
2018-01-20T04:13:21.611Z,2.70
2018-01-20T04:15:49.194Z,3.87
2018-01-20T04:18:16.778Z,3.77
2018-01-20T04:20:44.375Z,2.50
2018-01-20T04:23:11.957Z,4.30
2018-01-20T04:25:39.573Z,3.20
2018-01-20T04:28:07.939Z,2.30
2018-01-20T04:30:35.521Z,2.33
2018-01-20T04:33:03.115Z,2.03
2018-01-20T04:35:30.700Z,2.10
2018-01-20T04:37:58.331Z,2.37
2018-01-20T04:40:25.931Z,3.70
2018-01-20T04:42:53.545Z,3.73
2018-01-20T04:45:21.143Z,5.30
2018-01-20T04:47:48.773Z,4.60
2018-01-20T04:50:16.402Z,4.67
2018-01-20T04:52:44.811Z,3.63
2018-01-20T04:55:12.412Z,2.80
2018-01-20T04:57:40.001Z,3.60
2018-01-20T05:00:08.380Z,5.60
2018-01-20T05:02:36.775Z,3.10
2018-01-20T05:05:04.393Z,10.13
2018-01-20T05:07:42.111Z,4.17
2018-01-20T05:10:09.710Z,3.03
2018-01-20T05:12:37.293Z,6.13
2018-01-20T05:15:04.899Z,4.50
2018-01-20T05:17:33.267Z,7.40
2018-01-20T05:20:00.898Z,1.57
2018-01-20T05:22:28.489Z,3.43
2018-01-20T05:24:56.090Z,1.50
2018-01-20T05:27:23.702Z,3.13
2018-01-20T05:29:51.325Z,1.57
2018-01-20T05:32:18.962Z,3.50
2018-01-20T05:34:47.323Z,2.00
2018-01-20T05:37:14.944Z,1.97
2018-01-20T05:39:42.546Z,6.87
2018-01-20T05:42:10.141Z,5.53
2018-01-20T05:44:37.757Z,2.20
2018-01-20T05:47:05.359Z,2.87
2018-01-20T05:49:32.989Z,5.63
2018-01-20T05:52:00.667Z,3.93
2018-01-20T05:54:28.273Z,3.07
2018-01-20T05:56:55.899Z,5.43
2018-01-20T05:59:23.505Z,3.13
2018-01-20T06:01:51.092Z,5.70
2018-01-20T06:04:19.494Z,6.97
2018-01-20T06:06:47.877Z,8.50
2018-01-20T06:09:16.249Z,4.60
2018-01-20T06:11:44.619Z,2.50
2018-01-20T06:14:13.026Z,2.97
2018-01-20T06:16:40.652Z,5.50
2018-01-20T06:19:08.246Z,2.40
2018-01-20T06:21:35.870Z,2.70
2018-01-20T06:24:03.489Z,5.83
2018-01-20T06:26:31.081Z,2.50
2018-01-20T06:28:59.626Z,4.20
2018-01-20T06:31:27.240Z,2.43
2018-01-20T06:33:54.887Z,4.83
2018-01-20T06:36:22.504Z,2.30
2018-01-20T06:38:50.125Z,3.00
2018-01-20T06:41:17.752Z,2.80
2018-01-20T06:43:45.367Z,4.10
2018-01-20T06:46:13.745Z,4.03
2018-01-20T06:48:42.112Z,3.10
2018-01-20T06:51:09.747Z,2.10
2018-01-20T06:53:37.345Z,3.53
2018-01-20T06:56:06.542Z,2.40
2018-01-20T06:58:34.955Z,2.43
2018-01-20T07:01:03.352Z,2.63
2018-01-20T07:03:30.942Z,3.33
2018-01-20T07:05:58.535Z,3.70
2018-01-20T07:08:26.912Z,2.80
2018-01-20T07:10:55.290Z,4.60
2018-01-20T07:13:22.890Z,4.00
2018-01-20T07:15:50.498Z,6.50
2018-01-20T07:18:18.102Z,5.53
2018-01-20T07:20:45.715Z,4.23
2018-01-20T07:23:14.227Z,6.40
2018-01-20T07:25:41.818Z,3.93
2018-01-20T07:28:09.414Z,3.27
2018-01-20T07:30:36.996Z,4.30
2018-01-20T07:33:05.357Z,4.67
2018-01-20T07:35:32.997Z,3.97
2018-01-20T07:38:00.629Z,4.20
2018-01-20T07:40:28.220Z,8.87
2018-01-20T07:42:55.827Z,16.80
2018-01-20T07:45:25.016Z,16.63
2018-01-20T07:47:55.966Z,5.93
2018-01-20T07:50:24.300Z,6.93
2018-01-20T07:52:51.904Z,5.53
2018-01-20T07:55:20.252Z,6.30
2018-01-20T07:57:47.869Z,5.83
2018-01-20T08:00:15.521Z,5.03
2018-01-20T08:02:45.076Z,6.30
2018-01-20T08:05:12.670Z,6.33
2018-01-20T08:07:41.012Z,5.03
2018-01-20T08:10:08.612Z,5.50
2018-01-20T08:12:37.002Z,4.20
2018-01-20T08:15:04.595Z,6.40
2018-01-20T08:17:32.196Z,4.10
2018-01-20T08:20:00.590Z,5.37
2018-01-20T08:22:28.946Z,4.77
2018-01-20T08:24:56.573Z,4.50
2018-01-20T08:27:24.170Z,6.03
2018-01-20T08:29:51.830Z,4.23
2018-01-20T08:32:19.426Z,3.13
2018-01-20T08:34:47.785Z,3.60
2018-01-20T08:37:16.181Z,4.13
2018-01-20T08:39:43.801Z,3.30
2018-01-20T08:42:14.129Z,4.70
2018-01-20T08:44:41.713Z,5.97
2018-01-20T08:47:14.681Z,2.80
2018-01-20T08:49:42.294Z,3.30
2018-01-20T08:52:09.882Z,3.20
2018-01-20T08:54:37.527Z,3.77
2018-01-20T08:57:05.137Z,5.87
2018-01-20T08:59:32.747Z,6.03
2018-01-20T09:02:00.361Z,3.90
2018-01-20T09:04:27.967Z,3.57
2018-01-20T09:06:55.559Z,6.00
2018-01-20T09:09:23.136Z,8.77
2018-01-20T09:11:50.720Z,4.73
2018-01-20T09:14:19.103Z,5.83
2018-01-20T09:16:46.688Z,5.23
2018-01-20T09:19:14.271Z,3.13
2018-01-20T09:21:41.880Z,5.90
2018-01-20T09:24:11.268Z,4.90
2018-01-20T09:26:38.885Z,2.60
2018-01-20T09:29:06.872Z,2.67
2018-01-20T09:31:35.321Z,3.50
2018-01-20T09:34:02.967Z,3.20
2018-01-20T09:36:31.412Z,3.40
2018-01-20T09:38:59.058Z,4.90
2018-01-20T09:41:26.664Z,5.60
2018-01-20T09:43:55.017Z,2.40
2018-01-20T09:46:22.606Z,5.27
2018-01-20T09:48:50.203Z,2.83
2018-01-20T09:51:17.820Z,3.47
2018-01-20T09:53:46.176Z,2.30
2018-01-20T09:56:18.058Z,3.03
2018-01-20T09:58:46.420Z,2.73
2018-01-20T10:01:14.034Z,4.10
2018-01-20T10:03:41.610Z,2.10
2018-01-20T10:06:09.220Z,7.60
2018-01-20T10:08:37.612Z,3.73
2018-01-20T10:11:05.998Z,2.70
2018-01-20T10:13:34.371Z,3.00
2018-01-20T10:16:02.736Z,2.17
2018-01-20T10:18:30.317Z,2.77
2018-01-20T10:20:58.727Z,2.47
2018-01-20T10:23:26.305Z,3.80
2018-01-20T10:25:53.918Z,4.53
2018-01-20T10:28:21.524Z,3.80
2018-01-20T10:30:49.133Z,3.30
2018-01-20T10:33:17.562Z,1.80
2018-01-20T10:35:45.156Z,5.33
2018-01-20T10:38:12.787Z,3.00
2018-01-20T10:40:40.391Z,2.73
2018-01-20T10:43:08.762Z,3.23
2018-01-20T10:45:36.417Z,2.80
2018-01-20T10:48:04.014Z,2.60
2018-01-20T10:50:31.611Z,4.13
2018-01-20T10:52:59.229Z,2.30
2018-01-20T10:55:27.623Z,2.43
2018-01-20T10:57:55.258Z,3.40
2018-01-20T11:00:23.613Z,3.30
2018-01-20T11:02:51.220Z,3.80
2018-01-20T11:05:18.815Z,2.80
2018-01-20T11:07:46.396Z,2.83
2018-01-20T11:10:14.027Z,4.10
2018-01-20T11:12:41.615Z,6.20
2018-01-20T11:15:09.213Z,2.50
2018-01-20T11:17:37.580Z,4.13
2018-01-20T11:20:05.992Z,2.73
2018-01-20T11:22:33.648Z,2.87
2018-01-20T11:25:11.428Z,3.57
2018-01-20T11:27:39.048Z,4.90
2018-01-20T11:30:06.732Z,3.27
2018-01-20T11:32:34.349Z,2.30
2018-01-20T11:35:01.938Z,3.43
2018-01-20T11:37:29.543Z,2.90
2018-01-20T11:39:57.925Z,3.90
2018-01-20T11:42:26.313Z,2.40
2018-01-20T11:44:53.901Z,3.00
2018-01-20T11:47:21.485Z,2.57
2018-01-20T11:49:51.093Z,2.93
2018-01-20T11:52:18.725Z,2.20
2018-01-20T11:54:46.318Z,3.47
2018-01-20T11:57:19.924Z,2.60
2018-01-20T11:59:47.522Z,2.67
2018-01-20T12:02:15.894Z,3.30
2018-01-20T12:04:44.265Z,4.00
2018-01-20T12:07:12.705Z,4.67
2018-01-20T12:09:44.220Z,3.77
2018-01-20T12:12:11.807Z,2.73
2018-01-20T12:14:41.351Z,2.10
2018-01-20T12:17:12.570Z,3.40
2018-01-20T12:19:40.174Z,2.43
2018-01-20T12:22:08.556Z,2.33
2018-01-20T12:24:36.931Z,2.37
2018-01-20T12:27:06.332Z,2.80
2018-01-20T12:29:38.399Z,2.70
2018-01-20T12:32:10.128Z,2.93
2018-01-20T12:34:37.815Z,1.87
2018-01-20T12:37:05.392Z,2.50
2018-01-20T12:39:33.812Z,3.17
2018-01-20T12:42:01.429Z,3.00
2018-01-20T12:44:29.784Z,3.03
2018-01-20T12:46:57.408Z,6.50
2018-01-20T12:49:25.004Z,4.27
2018-01-20T12:51:59.437Z,3.00
2018-01-20T12:54:27.035Z,5.43
2018-01-20T12:56:54.620Z,2.87
2018-01-20T12:59:22.257Z,2.57
2018-01-20T13:01:50.813Z,2.00
2018-01-20T13:04:18.472Z,2.10
2018-01-20T13:06:46.087Z,1.67
2018-01-20T13:09:13.684Z,1.90
2018-01-20T13:11:41.283Z,1.97
2018-01-20T13:14:08.895Z,3.27
2018-01-20T13:16:36.530Z,1.70
2018-01-20T13:19:04.118Z,2.07
2018-01-20T13:21:32.711Z,1.87
2018-01-20T13:24:00.310Z,1.83
2018-01-20T13:26:27.902Z,1.93
2018-01-20T13:28:55.533Z,2.90
2018-01-20T13:31:23.126Z,2.50
2018-01-20T13:33:50.720Z,1.70
2018-01-20T13:36:18.301Z,3.10
2018-01-20T13:38:46.660Z,4.73
2018-01-20T13:41:14.261Z,2.20
2018-01-20T13:43:41.855Z,2.10
2018-01-20T13:46:09.441Z,2.13
2018-01-20T13:48:37.045Z,2.07
2018-01-20T13:51:04.629Z,1.40
2018-01-20T13:53:32.260Z,1.53
2018-01-20T13:55:59.863Z,1.90
2018-01-20T13:58:27.487Z,1.23
2018-01-20T14:00:55.099Z,3.20
2018-01-20T14:03:22.715Z,4.70
2018-01-20T14:05:50.339Z,7.17
2018-01-20T14:08:18.914Z,4.23
2018-01-20T14:10:46.502Z,5.83
2018-01-20T14:13:14.865Z,3.17
2018-01-20T14:15:42.485Z,2.90
2018-01-20T14:18:10.138Z,2.60
2018-01-20T14:20:37.730Z,1.63
2018-01-20T14:23:05.324Z,2.73
2018-01-20T14:25:33.688Z,2.60
2018-01-20T14:28:01.282Z,2.70
2018-01-20T14:30:28.907Z,1.60
2018-01-20T14:32:56.504Z,3.03
2018-01-20T14:35:24.113Z,2.00
2018-01-20T14:37:57.340Z,2.20
2018-01-20T14:40:25.733Z,3.20
2018-01-20T14:42:53.384Z,2.90
2018-01-20T14:45:21.763Z,5.60
2018-01-20T14:47:50.166Z,4.30
2018-01-20T14:50:17.774Z,3.63
2018-01-20T14:52:45.360Z,4.30
2018-01-20T14:55:13.772Z,3.73
2018-01-20T14:57:41.386Z,1.83
2018-01-20T15:00:09.012Z,3.13
2018-01-20T15:02:36.623Z,4.60
2018-01-20T15:05:04.999Z,4.13
2018-01-20T15:07:35.344Z,2.07
2018-01-20T15:10:03.706Z,1.90
2018-01-20T15:12:32.083Z,3.60
2018-01-20T15:15:00.459Z,3.40
2018-01-20T15:17:28.057Z,2.50
2018-01-20T15:19:55.803Z,2.70
2018-01-20T15:22:24.371Z,3.27
2018-01-20T15:24:59.376Z,7.07
2018-01-20T15:27:34.916Z,3.93
2018-01-20T15:30:02.541Z,4.60
2018-01-20T15:35:28.513Z,3.17
2018-01-20T15:38:13.865Z,2.67
2018-01-20T15:40:41.519Z,2.97
2018-01-20T15:43:09.746Z,6.97
2018-01-20T15:45:37.350Z,5.43
2018-01-20T15:48:05.750Z,3.77
2018-01-20T15:50:33.346Z,3.87
2018-01-20T15:53:00.942Z,6.30
2018-01-20T15:55:29.914Z,5.83
2018-01-20T15:57:57.536Z,5.23
2018-01-20T16:00:28.867Z,5.97
2018-01-20T16:02:57.071Z,5.93
2018-01-20T16:05:24.689Z,5.97
2018-01-20T16:07:53.074Z,5.97
2018-01-20T16:10:20.685Z,7.83
2018-01-20T16:15:45.985Z,4.60
2018-01-20T16:18:14.659Z,6.23
2018-01-20T16:20:44.329Z,4.07
2018-01-20T16:23:15.187Z,4.77
2018-01-20T16:25:45.506Z,4.40
2018-01-20T16:28:13.891Z,4.43
2018-01-20T16:30:50.311Z,4.97
2018-01-20T16:33:17.905Z,5.40
2018-01-20T16:35:45.538Z,10.20
2018-01-20T16:38:19.756Z,5.77
2018-01-20T16:40:47.402Z,6.00
2018-01-20T16:43:14.998Z,7.13
2018-01-20T16:45:42.602Z,71.47
2018-01-20T16:51:08.361Z,6.20
2018-01-20T16:53:36.059Z,7.63
2018-01-20T16:56:04.658Z,8.23
2018-01-20T16:58:45.703Z,10.10
2018-01-20T17:01:14.448Z,9.93
2018-01-20T17:03:48.462Z,8.77
2018-01-20T17:06:21.321Z,8.57
2018-01-20T17:08:48.947Z,8.27
2018-01-20T17:11:16.579Z,9.93
2018-01-20T17:13:45.216Z,9.13
2018-01-20T17:16:12.817Z,8.60
2018-01-20T17:18:42.381Z,11.30
2018-01-20T17:21:10.036Z,14.70
2018-01-20T17:23:37.641Z,9.70
2018-01-20T17:26:05.275Z,11.00
2018-01-20T17:28:32.876Z,8.70
2018-01-20T17:31:00.507Z,10.87
2018-01-20T17:33:44.999Z,10.90
2018-01-20T17:36:12.636Z,6.83
2018-01-20T17:38:41.016Z,11.77
2018-01-20T17:41:09.397Z,10.27
2018-01-20T17:43:38.772Z,9.87
2018-01-20T17:46:06.450Z,11.30
2018-01-20T17:48:34.068Z,12.70
2018-01-20T17:51:01.729Z,12.67
2018-01-20T17:53:29.372Z,11.87
2018-01-20T17:55:57.009Z,10.73
2018-01-20T17:58:25.405Z,12.37
2018-01-20T18:00:53.049Z,11.87
2018-01-20T18:03:21.471Z,13.50
2018-01-20T18:05:49.101Z,15.13
2018-01-20T18:08:16.749Z,13.73
2018-01-20T18:10:45.162Z,13.97
2018-01-20T18:13:12.818Z,10.40
2018-01-20T18:15:40.438Z,10.43
2018-01-20T18:18:08.049Z,9.03
2018-01-20T18:20:35.649Z,9.97
2018-01-20T18:23:03.297Z,11.73
2018-01-20T18:25:30.932Z,12.70
2018-01-20T18:27:58.560Z,14.90
2018-01-20T18:30:26.948Z,14.53
2018-01-20T18:32:54.576Z,14.90
2018-01-20T18:35:22.243Z,13.27
2018-01-20T18:37:49.881Z,13.17
2018-01-20T18:40:17.481Z,14.23
2018-01-20T18:42:45.095Z,14.77
2018-01-20T18:45:12.721Z,12.63
2018-01-20T18:47:40.369Z,23.27
2018-01-20T18:50:08.740Z,16.30
2018-01-20T18:52:36.367Z,17.97
2018-01-20T18:55:03.978Z,14.70
2018-01-20T18:57:32.383Z,15.67
2018-01-20T19:00:00.020Z,13.07
2018-01-20T19:02:28.410Z,15.20
2018-01-20T19:04:56.048Z,15.73
2018-01-20T19:07:23.664Z,15.90
2018-01-20T19:09:51.277Z,15.83
2018-01-20T19:12:19.677Z,20.80
2018-01-20T19:14:47.295Z,15.40
2018-01-20T19:17:14.913Z,16.07
2018-01-20T19:19:42.522Z,15.90
2018-01-20T19:22:10.140Z,20.87
2018-01-20T19:24:37.822Z,17.70
2018-01-20T19:27:05.434Z,20.20
2018-01-20T19:29:33.798Z,18.70
2018-01-20T19:32:01.403Z,15.93
2018-01-20T19:34:28.992Z,15.13
2018-01-20T19:36:56.628Z,17.83
2018-01-20T19:39:24.251Z,16.23
2018-01-20T19:41:51.863Z,20.47
2018-01-20T19:44:19.464Z,14.60
2018-01-20T19:46:47.114Z,15.93
2018-01-20T19:49:14.759Z,17.30
2018-01-20T19:51:42.371Z,20.00
2018-01-20T19:54:12.018Z,15.50
2018-01-20T19:56:53.489Z,19.10
2018-01-20T19:59:25.260Z,16.97
2018-01-20T20:01:52.893Z,20.80
2018-01-20T20:04:20.537Z,19.20
2018-01-20T20:06:50.148Z,20.97
2018-01-20T20:09:21.688Z,17.53
2018-01-20T20:11:49.297Z,16.97
2018-01-20T20:14:16.927Z,18.47
2018-01-20T20:16:45.375Z,17.23
2018-01-20T20:19:15.014Z,19.20
2018-01-20T20:21:43.426Z,18.03
2018-01-20T20:24:11.026Z,17.10
2018-01-20T20:26:38.656Z,17.30
2018-01-20T20:29:06.262Z,25.97
2018-01-20T20:31:33.882Z,25.07
2018-01-20T20:34:01.507Z,24.07
2018-01-20T20:36:29.873Z,19.43
2018-01-20T20:38:57.553Z,23.33
2018-01-20T20:41:25.948Z,23.40
2018-01-20T20:44:08.998Z,22.43
2018-01-20T20:46:36.619Z,22.50
2018-01-20T20:49:04.995Z,21.33
2018-01-20T20:51:34.599Z,24.03
2018-01-20T20:54:02.970Z,20.30
2018-01-20T20:56:30.595Z,26.13
2018-01-20T20:58:58.205Z,21.40
2018-01-20T21:01:26.566Z,23.77
2018-01-20T21:03:54.187Z,21.27
2018-01-20T21:06:21.782Z,16.47
2018-01-20T21:08:49.406Z,17.03
2018-01-20T21:11:17.024Z,17.60
2018-01-20T21:13:45.405Z,16.00
2018-01-20T21:16:13.785Z,16.90
2018-01-20T21:18:42.164Z,18.67
2018-01-20T21:21:10.588Z,21.63
2018-01-20T21:23:38.199Z,25.40
2018-01-20T21:29:12.996Z,21.73
2018-01-20T21:31:40.637Z,23.83
2018-01-20T21:34:08.263Z,20.67
2018-01-20T21:36:35.927Z,20.27
2018-01-20T21:39:03.565Z,18.90
2018-01-20T21:41:31.175Z,14.87
2018-01-20T21:43:59.545Z,15.73
2018-01-20T21:46:27.924Z,16.40
2018-01-20T21:48:56.316Z,18.00
2018-01-20T21:51:24.687Z,15.57
2018-01-20T21:53:53.049Z,14.37
2018-01-20T21:56:22.696Z,17.27
2018-01-20T21:58:50.286Z,16.27
2018-01-20T22:04:10.887Z,16.03
2018-01-20T22:06:38.515Z,17.03
2018-01-20T22:09:06.889Z,16.70
2018-01-20T22:11:35.274Z,16.73
2018-01-20T22:14:03.673Z,16.27
2018-01-20T22:16:41.191Z,13.27
2018-01-20T22:19:08.905Z,11.70
2018-01-20T22:21:40.993Z,11.40
2018-01-20T22:24:08.694Z,8.70
2018-01-20T22:26:36.335Z,11.10
2018-01-20T22:29:03.947Z,9.07
2018-01-20T22:31:31.582Z,7.87
2018-01-20T22:33:59.181Z,8.50
2018-01-20T22:36:26.814Z,7.63
2018-01-20T22:38:54.430Z,7.33
2018-01-20T22:41:22.081Z,6.43
2018-01-20T22:43:50.441Z,6.87
2018-01-20T22:46:18.061Z,6.03
2018-01-20T22:48:45.695Z,5.20
2018-01-20T22:51:13.301Z,6.23
2018-01-20T22:53:51.500Z,5.77
2018-01-20T22:56:19.190Z,7.13
2018-01-20T22:58:46.806Z,6.23
2018-01-20T23:01:20.046Z,6.40
2018-01-20T23:03:47.671Z,6.60
2018-01-20T23:06:15.293Z,6.00
2018-01-20T23:08:56.908Z,5.70
2018-01-20T23:11:24.542Z,6.30
2018-01-20T23:13:52.914Z,5.83
2018-01-20T23:16:21.301Z,6.90
2018-01-20T23:18:48.926Z,6.50
2018-01-20T23:21:16.582Z,6.23
2018-01-20T23:23:44.181Z,7.50
2018-01-20T23:26:12.573Z,6.90
2018-01-20T23:28:40.232Z,8.30
2018-01-20T23:31:08.622Z,10.63
2018-01-20T23:33:36.237Z,7.87
2018-01-20T23:36:03.849Z,7.90
2018-01-20T23:38:31.457Z,9.20
2018-01-20T23:40:59.081Z,8.43
2018-01-20T23:43:26.691Z,7.20
2018-01-20T23:45:54.903Z,8.47
2018-01-20T23:48:22.508Z,9.60
2018-01-20T23:50:50.124Z,8.43
2018-01-20T23:53:17.820Z,9.90
2018-01-20T23:55:45.448Z,9.20
2018-01-20T23:58:13.830Z,9.13
